sensor_id;sensor_type;location;lat;lon;timestamp;temperature;humidity
59651;DHT22;45954;49.768;8.636;2023-06-05T00:02:18;19.50;55.50
59651;DHT22;45954;49.768;8.636;2023-06-05T00:04:45;19.40;55.00
59651;DHT22;45954;49.768;8.636;2023-06-05T00:07:10;19.30;55.20
59651;DHT22;45954;49.768;8.636;2023-06-05T00:09:36;19.30;55.00
59651;DHT22;45954;49.768;8.636;2023-06-05T00:12:02;19.40;55.50
59651;DHT22;45954;49.768;8.636;2023-06-05T00:14:28;19.30;55.10
59651;DHT22;45954;49.768;8.636;2023-06-05T00:16:54;19.30;55.10
59651;DHT22;45954;49.768;8.636;2023-06-05T00:19:21;19.40;54.90
59651;DHT22;45954;49.768;8.636;2023-06-05T00:21:47;19.30;55.40
59651;DHT22;45954;49.768;8.636;2023-06-05T00:24:16;19.20;56.20
59651;DHT22;45954;49.768;8.636;2023-06-05T00:26:42;19.30;55.40
59651;DHT22;45954;49.768;8.636;2023-06-05T00:29:08;19.30;55.00
59651;DHT22;45954;49.768;8.636;2023-06-05T00:31:34;19.40;55.70
59651;DHT22;45954;49.768;8.636;2023-06-05T00:34:00;19.30;55.80
59651;DHT22;45954;49.768;8.636;2023-06-05T00:36:26;19.20;55.20
59651;DHT22;45954;49.768;8.636;2023-06-05T00:38:53;19.20;55.50
59651;DHT22;45954;49.768;8.636;2023-06-05T00:41:19;19.10;55.30
59651;DHT22;45954;49.768;8.636;2023-06-05T00:43:45;19.20;55.70
59651;DHT22;45954;49.768;8.636;2023-06-05T00:46:11;19.30;55.50
59651;DHT22;45954;49.768;8.636;2023-06-05T00:48:40;19.20;55.40
59651;DHT22;45954;49.768;8.636;2023-06-05T00:51:06;19.30;55.30
59651;DHT22;45954;49.768;8.636;2023-06-05T00:53:35;19.20;55.20
59651;DHT22;45954;49.768;8.636;2023-06-05T00:56:02;19.20;56.20
59651;DHT22;45954;49.768;8.636;2023-06-05T00:58:29;19.10;55.70
59651;DHT22;45954;49.768;8.636;2023-06-05T01:00:57;19.20;56.40
59651;DHT22;45954;49.768;8.636;2023-06-05T01:03:24;19.20;56.10
59651;DHT22;45954;49.768;8.636;2023-06-05T01:05:54;19.00;57.10
59651;DHT22;45954;49.768;8.636;2023-06-05T01:08:33;18.60;57.50
59651;DHT22;45954;49.768;8.636;2023-06-05T01:14:21;17.60;60.10
59651;DHT22;45954;49.768;8.636;2023-06-05T01:16:54;17.30;61.80
59651;DHT22;45954;49.768;8.636;2023-06-05T01:19:22;17.20;61.20
59651;DHT22;45954;49.768;8.636;2023-06-05T01:22:01;17.20;61.40
59651;DHT22;45954;49.768;8.636;2023-06-05T01:24:28;17.10;61.70
59651;DHT22;45954;49.768;8.636;2023-06-05T01:33:00;16.90;61.80
59651;DHT22;45954;49.768;8.636;2023-06-05T01:35:31;16.30;62.70
59651;DHT22;45954;49.768;8.636;2023-06-05T01:38:03;16.50;62.60
59651;DHT22;45954;49.768;8.636;2023-06-05T01:40:33;16.80;61.60
59651;DHT22;45954;49.768;8.636;2023-06-05T01:43:03;16.40;62.80
59651;DHT22;45954;49.768;8.636;2023-06-05T01:45:32;16.60;63.10
59651;DHT22;45954;49.768;8.636;2023-06-05T01:47:59;16.40;62.90
59651;DHT22;45954;49.768;8.636;2023-06-05T01:50:25;16.60;61.30
59651;DHT22;45954;49.768;8.636;2023-06-05T01:52:52;16.50;61.70
59651;DHT22;45954;49.768;8.636;2023-06-05T01:55:22;16.60;63.20
59651;DHT22;45954;49.768;8.636;2023-06-05T01:57:50;16.90;61.80
59651;DHT22;45954;49.768;8.636;2023-06-05T02:00:16;16.50;61.80
59651;DHT22;45954;49.768;8.636;2023-06-05T02:02:44;16.60;62.70
59651;DHT22;45954;49.768;8.636;2023-06-05T02:05:12;16.60;62.50
59651;DHT22;45954;49.768;8.636;2023-06-05T02:07:40;16.50;61.70
59651;DHT22;45954;49.768;8.636;2023-06-05T02:10:07;16.50;61.60
59651;DHT22;45954;49.768;8.636;2023-06-05T02:12:34;16.50;61.30
59651;DHT22;45954;49.768;8.636;2023-06-05T02:15:03;16.50;60.90
59651;DHT22;45954;49.768;8.636;2023-06-05T02:17:30;16.60;61.40
59651;DHT22;45954;49.768;8.636;2023-06-05T02:19:56;16.70;61.60
59651;DHT22;45954;49.768;8.636;2023-06-05T02:22:22;16.70;62.70
59651;DHT22;45954;49.768;8.636;2023-06-05T02:24:49;16.50;62.90
59651;DHT22;45954;49.768;8.636;2023-06-05T02:27:17;16.70;61.90
59651;DHT22;45954;49.768;8.636;2023-06-05T02:29:43;16.80;61.70
59651;DHT22;45954;49.768;8.636;2023-06-05T02:32:09;16.90;62.10
59651;DHT22;45954;49.768;8.636;2023-06-05T02:34:35;16.60;60.90
59651;DHT22;45954;49.768;8.636;2023-06-05T02:37:01;16.30;62.60
59651;DHT22;45954;49.768;8.636;2023-06-05T02:39:28;16.40;63.10
59651;DHT22;45954;49.768;8.636;2023-06-05T02:41:56;16.60;63.20
59651;DHT22;45954;49.768;8.636;2023-06-05T02:44:22;16.50;63.00
59651;DHT22;45954;49.768;8.636;2023-06-05T02:46:48;16.30;63.50
59651;DHT22;45954;49.768;8.636;2023-06-05T02:49:14;16.20;63.80
59651;DHT22;45954;49.768;8.636;2023-06-05T02:51:40;16.10;63.50
59651;DHT22;45954;49.768;8.636;2023-06-05T02:54:06;16.10;64.40
59651;DHT22;45954;49.768;8.636;2023-06-05T02:56:31;16.20;64.30
59651;DHT22;45954;49.768;8.636;2023-06-05T02:58:57;16.10;64.40
59651;DHT22;45954;49.768;8.636;2023-06-05T03:01:23;16.10;64.80
59651;DHT22;45954;49.768;8.636;2023-06-05T03:03:51;16.00;65.00
59651;DHT22;45954;49.768;8.636;2023-06-05T03:06:18;15.90;65.60
59651;DHT22;45954;49.768;8.636;2023-06-05T03:08:44;15.90;65.70
59651;DHT22;45954;49.768;8.636;2023-06-05T03:11:10;16.00;65.40
59651;DHT22;45954;49.768;8.636;2023-06-05T03:13:37;16.00;65.50
59651;DHT22;45954;49.768;8.636;2023-06-05T03:16:03;16.00;64.70
59651;DHT22;45954;49.768;8.636;2023-06-05T03:18:29;16.10;65.40
59651;DHT22;45954;49.768;8.636;2023-06-05T03:20:56;16.00;65.50
59651;DHT22;45954;49.768;8.636;2023-06-05T03:25:51;16.00;66.50
59651;DHT22;45954;49.768;8.636;2023-06-05T03:28:18;15.80;65.40
59651;DHT22;45954;49.768;8.636;2023-06-05T03:30:45;15.50;65.50
59651;DHT22;45954;49.768;8.636;2023-06-05T03:33:11;15.40;66.10
59651;DHT22;45954;49.768;8.636;2023-06-05T03:35:37;15.10;66.70
59651;DHT22;45954;49.768;8.636;2023-06-05T03:38:03;14.80;67.20
59651;DHT22;45954;49.768;8.636;2023-06-05T03:40:29;15.00;67.00
59651;DHT22;45954;49.768;8.636;2023-06-05T03:42:55;15.10;66.80
59651;DHT22;45954;49.768;8.636;2023-06-05T03:45:20;15.00;67.30
59651;DHT22;45954;49.768;8.636;2023-06-05T03:47:47;15.10;67.90
59651;DHT22;45954;49.768;8.636;2023-06-05T03:50:14;15.40;68.10
59651;DHT22;45954;49.768;8.636;2023-06-05T03:52:43;15.20;67.90
59651;DHT22;45954;49.768;8.636;2023-06-05T03:55:09;15.00;68.10
59651;DHT22;45954;49.768;8.636;2023-06-05T03:57:38;15.10;67.80
59651;DHT22;45954;49.768;8.636;2023-06-05T04:00:07;15.10;68.10
59651;DHT22;45954;49.768;8.636;2023-06-05T04:02:37;15.00;68.40
59651;DHT22;45954;49.768;8.636;2023-06-05T04:05:03;15.10;68.30
59651;DHT22;45954;49.768;8.636;2023-06-05T04:07:30;15.00;68.30
59651;DHT22;45954;49.768;8.636;2023-06-05T04:09:56;14.80;69.00
59651;DHT22;45954;49.768;8.636;2023-06-05T04:12:21;14.90;70.00
59651;DHT22;45954;49.768;8.636;2023-06-05T04:14:47;15.00;68.10
59651;DHT22;45954;49.768;8.636;2023-06-05T04:17:13;14.80;69.50
59651;DHT22;45954;49.768;8.636;2023-06-05T04:19:40;14.70;69.40
59651;DHT22;45954;49.768;8.636;2023-06-05T04:22:06;14.70;68.70
59651;DHT22;45954;49.768;8.636;2023-06-05T04:24:32;15.00;69.20
59651;DHT22;45954;49.768;8.636;2023-06-05T04:26:58;15.10;69.50
59651;DHT22;45954;49.768;8.636;2023-06-05T04:29:26;15.20;69.40
59651;DHT22;45954;49.768;8.636;2023-06-05T04:31:52;15.40;69.80
59651;DHT22;45954;49.768;8.636;2023-06-05T04:34:18;15.40;70.40
59651;DHT22;45954;49.768;8.636;2023-06-05T04:36:45;15.50;70.70
59651;DHT22;45954;49.768;8.636;2023-06-05T04:39:12;15.60;70.80
59651;DHT22;45954;49.768;8.636;2023-06-05T04:41:42;15.50;71.30
59651;DHT22;45954;49.768;8.636;2023-06-05T04:44:15;15.70;70.40
59651;DHT22;45954;49.768;8.636;2023-06-05T04:46:43;15.80;71.10
59651;DHT22;45954;49.768;8.636;2023-06-05T04:49:14;15.80;69.60
59651;DHT22;45954;49.768;8.636;2023-06-05T04:51:42;15.80;70.90
59651;DHT22;45954;49.768;8.636;2023-06-05T04:54:09;16.00;70.90
59651;DHT22;45954;49.768;8.636;2023-06-05T04:56:36;15.90;70.40
59651;DHT22;45954;49.768;8.636;2023-06-05T04:59:03;16.00;71.00
59651;DHT22;45954;49.768;8.636;2023-06-05T05:01:29;16.10;70.30
59651;DHT22;45954;49.768;8.636;2023-06-05T05:03:55;16.10;70.90
59651;DHT22;45954;49.768;8.636;2023-06-05T05:06:22;16.20;70.50
59651;DHT22;45954;49.768;8.636;2023-06-05T05:08:48;16.40;66.10
59651;DHT22;45954;49.768;8.636;2023-06-05T05:11:14;16.40;67.30
59651;DHT22;45954;49.768;8.636;2023-06-05T05:13:41;16.60;68.90
59651;DHT22;45954;49.768;8.636;2023-06-05T05:16:08;16.70;69.90
59651;DHT22;45954;49.768;8.636;2023-06-05T05:18:35;16.70;67.00
59651;DHT22;45954;49.768;8.636;2023-06-05T05:21:03;16.50;68.00
59651;DHT22;45954;49.768;8.636;2023-06-05T05:23:31;16.60;67.00
59651;DHT22;45954;49.768;8.636;2023-06-05T05:25:57;16.80;68.50
59651;DHT22;45954;49.768;8.636;2023-06-05T05:28:23;17.20;66.40
59651;DHT22;45954;49.768;8.636;2023-06-05T05:30:51;17.10;66.00
59651;DHT22;45954;49.768;8.636;2023-06-05T05:33:17;17.00;66.40
59651;DHT22;45954;49.768;8.636;2023-06-05T05:35:44;17.00;67.20
59651;DHT22;45954;49.768;8.636;2023-06-05T05:38:10;16.90;67.00
59651;DHT22;45954;49.768;8.636;2023-06-05T05:40:36;16.90;67.60
59651;DHT22;45954;49.768;8.636;2023-06-05T05:43:02;17.00;67.70
59651;DHT22;45954;49.768;8.636;2023-06-05T05:45:28;17.00;66.30
59651;DHT22;45954;49.768;8.636;2023-06-05T05:47:54;17.20;66.70
59651;DHT22;45954;49.768;8.636;2023-06-05T05:50:19;17.10;66.70
59651;DHT22;45954;49.768;8.636;2023-06-05T05:52:45;17.30;67.70
59651;DHT22;45954;49.768;8.636;2023-06-05T05:55:13;17.40;67.40
59651;DHT22;45954;49.768;8.636;2023-06-05T05:57:39;17.60;66.70
59651;DHT22;45954;49.768;8.636;2023-06-05T06:00:06;17.40;66.00
59651;DHT22;45954;49.768;8.636;2023-06-05T06:02:41;17.40;65.90
59651;DHT22;45954;49.768;8.636;2023-06-05T06:05:08;17.60;65.90
59651;DHT22;45954;49.768;8.636;2023-06-05T06:07:37;17.60;66.10
59651;DHT22;45954;49.768;8.636;2023-06-05T06:10:06;17.70;65.30
59651;DHT22;45954;49.768;8.636;2023-06-05T06:12:34;17.60;66.30
59651;DHT22;45954;49.768;8.636;2023-06-05T06:15:00;17.70;65.30
59651;DHT22;45954;49.768;8.636;2023-06-05T06:17:26;17.80;65.90
59651;DHT22;45954;49.768;8.636;2023-06-05T06:19:52;18.20;66.10
59651;DHT22;45954;49.768;8.636;2023-06-05T06:22:18;18.30;64.10
59651;DHT22;45954;49.768;8.636;2023-06-05T06:24:44;18.40;64.00
59651;DHT22;45954;49.768;8.636;2023-06-05T06:27:11;18.50;64.00
59651;DHT22;45954;49.768;8.636;2023-06-05T06:29:51;18.50;63.90
59651;DHT22;45954;49.768;8.636;2023-06-05T06:32:21;18.50;63.30
59651;DHT22;45954;49.768;8.636;2023-06-05T06:34:47;18.70;63.50
59651;DHT22;45954;49.768;8.636;2023-06-05T06:37:14;18.80;62.90
59651;DHT22;45954;49.768;8.636;2023-06-05T06:39:43;18.80;62.50
59651;DHT22;45954;49.768;8.636;2023-06-05T06:42:10;18.80;63.20
59651;DHT22;45954;49.768;8.636;2023-06-05T06:44:37;19.00;63.60
59651;DHT22;45954;49.768;8.636;2023-06-05T06:47:04;19.20;62.90
59651;DHT22;45954;49.768;8.636;2023-06-05T06:49:30;19.30;62.00
59651;DHT22;45954;49.768;8.636;2023-06-05T06:51:57;19.30;62.00
59651;DHT22;45954;49.768;8.636;2023-06-05T06:54:23;19.30;62.20
59651;DHT22;45954;49.768;8.636;2023-06-05T06:56:51;19.40;62.40
59651;DHT22;45954;49.768;8.636;2023-06-05T06:59:16;19.50;61.20
59651;DHT22;45954;49.768;8.636;2023-06-05T07:01:45;19.60;61.80
59651;DHT22;45954;49.768;8.636;2023-06-05T07:04:12;19.80;61.30
59651;DHT22;45954;49.768;8.636;2023-06-05T07:06:45;19.90;61.00
59651;DHT22;45954;49.768;8.636;2023-06-05T07:09:12;20.10;61.50
59651;DHT22;45954;49.768;8.636;2023-06-05T07:11:38;20.20;61.30
59651;DHT22;45954;49.768;8.636;2023-06-05T07:14:04;20.30;60.70
59651;DHT22;45954;49.768;8.636;2023-06-05T07:16:30;20.40;60.80
59651;DHT22;45954;49.768;8.636;2023-06-05T07:18:56;20.60;60.30
59651;DHT22;45954;49.768;8.636;2023-06-05T07:21:22;20.60;60.80
59651;DHT22;45954;49.768;8.636;2023-06-05T07:23:49;20.70;60.80
59651;DHT22;45954;49.768;8.636;2023-06-05T07:26:20;20.90;60.90
59651;DHT22;45954;49.768;8.636;2023-06-05T07:28:47;20.90;60.50
59651;DHT22;45954;49.768;8.636;2023-06-05T07:31:15;21.10;61.10
59651;DHT22;45954;49.768;8.636;2023-06-05T07:33:42;21.20;60.50
59651;DHT22;45954;49.768;8.636;2023-06-05T07:36:08;21.30;60.10
59651;DHT22;45954;49.768;8.636;2023-06-05T07:38:36;21.30;60.20
59651;DHT22;45954;49.768;8.636;2023-06-05T07:41:02;21.40;60.50
59651;DHT22;45954;49.768;8.636;2023-06-05T07:43:28;21.60;60.70
59651;DHT22;45954;49.768;8.636;2023-06-05T07:45:54;21.70;60.40
59651;DHT22;45954;49.768;8.636;2023-06-05T07:48:20;21.80;60.10
59651;DHT22;45954;49.768;8.636;2023-06-05T07:50:46;21.70;60.50
59651;DHT22;45954;49.768;8.636;2023-06-05T07:53:12;21.80;60.20
59651;DHT22;45954;49.768;8.636;2023-06-05T07:55:38;21.90;59.80
59651;DHT22;45954;49.768;8.636;2023-06-05T07:58:03;21.90;60.20
59651;DHT22;45954;49.768;8.636;2023-06-05T08:00:29;22.00;60.30
59651;DHT22;45954;49.768;8.636;2023-06-05T08:02:55;22.10;60.00
59651;DHT22;45954;49.768;8.636;2023-06-05T08:05:22;22.10;60.30
59651;DHT22;45954;49.768;8.636;2023-06-05T08:07:48;22.30;59.90
59651;DHT22;45954;49.768;8.636;2023-06-05T08:10:14;22.30;60.60
59651;DHT22;45954;49.768;8.636;2023-06-05T08:12:40;22.40;60.40
59651;DHT22;45954;49.768;8.636;2023-06-05T08:15:06;22.60;61.00
59651;DHT22;45954;49.768;8.636;2023-06-05T08:17:32;22.80;61.10
59651;DHT22;45954;49.768;8.636;2023-06-05T08:19:58;22.80;60.80
59651;DHT22;45954;49.768;8.636;2023-06-05T08:22:25;22.90;60.70
59651;DHT22;45954;49.768;8.636;2023-06-05T08:24:51;22.80;60.50
59651;DHT22;45954;49.768;8.636;2023-06-05T08:27:19;23.00;61.00
59651;DHT22;45954;49.768;8.636;2023-06-05T08:29:45;23.20;61.30
59651;DHT22;45954;49.768;8.636;2023-06-05T08:32:11;23.30;60.80
59651;DHT22;45954;49.768;8.636;2023-06-05T08:34:37;23.40;60.90
59651;DHT22;45954;49.768;8.636;2023-06-05T08:37:03;23.60;60.80
59651;DHT22;45954;49.768;8.636;2023-06-05T08:39:29;23.70;61.10
59651;DHT22;45954;49.768;8.636;2023-06-05T08:41:58;23.80;61.00
59651;DHT22;45954;49.768;8.636;2023-06-05T08:44:29;23.80;60.90
59651;DHT22;45954;49.768;8.636;2023-06-05T08:47:01;23.70;61.10
59651;DHT22;45954;49.768;8.636;2023-06-05T08:49:29;23.90;60.90
59651;DHT22;45954;49.768;8.636;2023-06-05T08:52:03;24.20;61.40
59651;DHT22;45954;49.768;8.636;2023-06-05T08:54:39;24.50;61.30
59651;DHT22;45954;49.768;8.636;2023-06-05T08:57:07;24.70;60.30
59651;DHT22;45954;49.768;8.636;2023-06-05T08:59:34;24.70;60.60
59651;DHT22;45954;49.768;8.636;2023-06-05T09:02:00;24.80;61.20
59651;DHT22;45954;49.768;8.636;2023-06-05T09:04:26;24.90;60.90
59651;DHT22;45954;49.768;8.636;2023-06-05T09:07:01;25.00;60.80
59651;DHT22;45954;49.768;8.636;2023-06-05T09:09:28;25.20;61.10
59651;DHT22;45954;49.768;8.636;2023-06-05T09:12:08;25.20;60.90
59651;DHT22;45954;49.768;8.636;2023-06-05T09:14:38;25.10;60.30
59651;DHT22;45954;49.768;8.636;2023-06-05T09:17:04;25.30;60.70
59651;DHT22;45954;49.768;8.636;2023-06-05T09:19:36;25.30;60.60
59651;DHT22;45954;49.768;8.636;2023-06-05T09:22:03;25.50;61.20
59651;DHT22;45954;49.768;8.636;2023-06-05T09:24:31;25.70;60.50
59651;DHT22;45954;49.768;8.636;2023-06-05T09:31:58;25.70;60.30
59651;DHT22;45954;49.768;8.636;2023-06-05T09:34:28;25.90;59.70
59651;DHT22;45954;49.768;8.636;2023-06-05T09:36:57;26.10;59.40
59651;DHT22;45954;49.768;8.636;2023-06-05T09:39:26;25.90;59.50
59651;DHT22;45954;49.768;8.636;2023-06-05T09:41:54;26.00;60.00
59651;DHT22;45954;49.768;8.636;2023-06-05T09:44:21;26.10;59.60
59651;DHT22;45954;49.768;8.636;2023-06-05T09:47:08;26.30;58.50
59651;DHT22;45954;49.768;8.636;2023-06-05T09:52:09;26.20;59.80
59651;DHT22;45954;49.768;8.636;2023-06-05T09:54:42;26.40;58.90
59651;DHT22;45954;49.768;8.636;2023-06-05T09:57:14;26.50;58.40
59651;DHT22;45954;49.768;8.636;2023-06-05T09:59:53;26.80;57.90
59651;DHT22;45954;49.768;8.636;2023-06-05T10:02:25;26.80;57.10
59651;DHT22;45954;49.768;8.636;2023-06-05T10:04:59;26.70;57.90
59651;DHT22;45954;49.768;8.636;2023-06-05T10:07:30;26.80;57.10
59651;DHT22;45954;49.768;8.636;2023-06-05T10:09:58;26.30;56.60
59651;DHT22;45954;49.768;8.636;2023-06-05T10:12:24;26.50;58.40
59651;DHT22;45954;49.768;8.636;2023-06-05T10:14:54;26.90;58.00
59651;DHT22;45954;49.768;8.636;2023-06-05T10:17:23;27.00;56.70
59651;DHT22;45954;49.768;8.636;2023-06-05T10:19:50;26.80;56.70
59651;DHT22;45954;49.768;8.636;2023-06-05T10:22:17;27.10;57.20
59651;DHT22;45954;49.768;8.636;2023-06-05T10:24:52;27.40;56.90
59651;DHT22;45954;49.768;8.636;2023-06-05T10:30:26;27.40;57.20
59651;DHT22;45954;49.768;8.636;2023-06-05T10:36:31;27.50;56.40
59651;DHT22;45954;49.768;8.636;2023-06-05T10:39:15;27.70;56.10
59651;DHT22;45954;49.768;8.636;2023-06-05T10:41:41;27.80;56.10
59651;DHT22;45954;49.768;8.636;2023-06-05T10:44:07;27.70;54.90
59651;DHT22;45954;49.768;8.636;2023-06-05T10:46:35;27.90;53.40
59651;DHT22;45954;49.768;8.636;2023-06-05T10:51:37;27.80;53.60
59651;DHT22;45954;49.768;8.636;2023-06-05T10:54:52;27.70;53.80
59651;DHT22;45954;49.768;8.636;2023-06-05T10:57:02;27.70;53.50
59651;DHT22;45954;49.768;8.636;2023-06-05T10:59:35;28.00;53.20
59651;DHT22;45954;49.768;8.636;2023-06-05T11:07:31;27.90;54.20
59651;DHT22;45954;49.768;8.636;2023-06-05T11:15:03;28.30;53.30
59651;DHT22;45954;49.768;8.636;2023-06-05T11:17:35;28.30;52.50
59651;DHT22;45954;49.768;8.636;2023-06-05T11:20:07;28.50;53.10
59651;DHT22;45954;49.768;8.636;2023-06-05T11:25:24;28.50;53.10
59651;DHT22;45954;49.768;8.636;2023-06-05T11:28:05;28.80;53.00
59651;DHT22;45954;49.768;8.636;2023-06-05T11:30:40;28.80;52.90
59651;DHT22;45954;49.768;8.636;2023-06-05T11:35:48;29.00;51.30
59651;DHT22;45954;49.768;8.636;2023-06-05T11:38:20;29.10;51.30
59651;DHT22;45954;49.768;8.636;2023-06-05T11:40:48;29.00;51.60
59651;DHT22;45954;49.768;8.636;2023-06-05T11:43:14;29.30;50.90
59651;DHT22;45954;49.768;8.636;2023-06-05T11:45:48;29.50;51.00
59651;DHT22;45954;49.768;8.636;2023-06-05T11:48:15;29.40;51.70
59651;DHT22;45954;49.768;8.636;2023-06-05T11:51:11;29.60;51.90
59651;DHT22;45954;49.768;8.636;2023-06-05T11:53:44;29.60;51.00
59651;DHT22;45954;49.768;8.636;2023-06-05T11:56:15;29.70;50.10
59651;DHT22;45954;49.768;8.636;2023-06-05T11:58:44;29.90;50.40
59651;DHT22;45954;49.768;8.636;2023-06-05T12:01:19;30.10;49.50
59651;DHT22;45954;49.768;8.636;2023-06-05T12:04:05;30.20;49.50
59651;DHT22;45954;49.768;8.636;2023-06-05T12:06:32;30.00;50.20
59651;DHT22;45954;49.768;8.636;2023-06-05T12:09:09;30.20;50.90
59651;DHT22;45954;49.768;8.636;2023-06-05T12:11:36;30.40;50.60
59651;DHT22;45954;49.768;8.636;2023-06-05T12:14:04;30.40;49.10
59651;DHT22;45954;49.768;8.636;2023-06-05T12:16:38;30.50;49.90
59651;DHT22;45954;49.768;8.636;2023-06-05T12:19:23;30.50;50.70
59651;DHT22;45954;49.768;8.636;2023-06-05T12:21:50;30.60;49.80
59651;DHT22;45954;49.768;8.636;2023-06-05T12:24:25;30.80;49.60
59651;DHT22;45954;49.768;8.636;2023-06-05T12:26:55;30.60;48.40
59651;DHT22;45954;49.768;8.636;2023-06-05T12:29:32;30.80;48.70
59651;DHT22;45954;49.768;8.636;2023-06-05T12:32:01;30.90;49.20
59651;DHT22;45954;49.768;8.636;2023-06-05T12:34:45;30.90;48.30
59651;DHT22;45954;49.768;8.636;2023-06-05T12:37:33;30.60;48.70
59651;DHT22;45954;49.768;8.636;2023-06-05T12:40:05;30.80;48.90
59651;DHT22;45954;49.768;8.636;2023-06-05T12:42:37;31.00;49.00
59651;DHT22;45954;49.768;8.636;2023-06-05T12:45:04;31.10;48.50
59651;DHT22;45954;49.768;8.636;2023-06-05T12:47:32;30.70;46.90
59651;DHT22;45954;49.768;8.636;2023-06-05T12:49:59;31.30;48.20
59651;DHT22;45954;49.768;8.636;2023-06-05T12:52:25;31.50;46.00
59651;DHT22;45954;49.768;8.636;2023-06-05T12:54:53;31.30;46.20
59651;DHT22;45954;49.768;8.636;2023-06-05T12:57:19;31.10;46.80
59651;DHT22;45954;49.768;8.636;2023-06-05T12:59:47;31.20;46.90
59651;DHT22;45954;49.768;8.636;2023-06-05T13:02:13;31.40;47.00
59651;DHT22;45954;49.768;8.636;2023-06-05T13:04:39;31.90;47.30
59651;DHT22;45954;49.768;8.636;2023-06-05T13:07:06;32.00;47.30
59651;DHT22;45954;49.768;8.636;2023-06-05T13:09:33;31.70;47.20
59651;DHT22;45954;49.768;8.636;2023-06-05T13:11:59;31.70;46.70
59651;DHT22;45954;49.768;8.636;2023-06-05T13:14:28;31.30;47.20
59651;DHT22;45954;49.768;8.636;2023-06-05T13:16:53;31.80;47.50
59651;DHT22;45954;49.768;8.636;2023-06-05T13:19:19;31.90;47.20
59651;DHT22;45954;49.768;8.636;2023-06-05T13:21:46;32.20;47.50
59651;DHT22;45954;49.768;8.636;2023-06-05T13:24:12;32.40;47.40
59651;DHT22;45954;49.768;8.636;2023-06-05T13:26:38;33.40;47.70
59651;DHT22;45954;49.768;8.636;2023-06-05T13:29:04;33.30;46.30
59651;DHT22;45954;49.768;8.636;2023-06-05T13:31:30;32.70;46.30
59651;DHT22;45954;49.768;8.636;2023-06-05T13:33:56;32.40;46.30
59651;DHT22;45954;49.768;8.636;2023-06-05T13:36:22;32.10;46.20
59651;DHT22;45954;49.768;8.636;2023-06-05T13:38:49;32.10;46.10
59651;DHT22;45954;49.768;8.636;2023-06-05T13:41:15;32.90;46.40
59651;DHT22;45954;49.768;8.636;2023-06-05T13:43:41;32.90;46.00
59651;DHT22;45954;49.768;8.636;2023-06-05T13:46:07;32.60;46.10
59651;DHT22;45954;49.768;8.636;2023-06-05T13:48:33;32.40;46.10
59651;DHT22;45954;49.768;8.636;2023-06-05T13:51:03;32.80;46.10
59651;DHT22;45954;49.768;8.636;2023-06-05T13:53:30;33.00;46.50
59651;DHT22;45954;49.768;8.636;2023-06-05T13:56:04;33.50;47.30
59651;DHT22;45954;49.768;8.636;2023-06-05T13:58:30;33.60;46.30
59651;DHT22;45954;49.768;8.636;2023-06-05T14:00:58;33.90;45.30
59651;DHT22;45954;49.768;8.636;2023-06-05T14:03:25;33.90;45.20
59651;DHT22;45954;49.768;8.636;2023-06-05T14:05:51;33.90;45.50
59651;DHT22;45954;49.768;8.636;2023-06-05T14:08:18;33.00;45.00
59651;DHT22;45954;49.768;8.636;2023-06-05T14:10:45;33.00;45.30
59651;DHT22;45954;49.768;8.636;2023-06-05T14:13:11;33.40;46.00
59651;DHT22;45954;49.768;8.636;2023-06-05T14:15:37;33.30;46.50
59651;DHT22;45954;49.768;8.636;2023-06-05T14:18:05;33.30;46.80
59651;DHT22;45954;49.768;8.636;2023-06-05T14:20:32;33.90;46.80
59651;DHT22;45954;49.768;8.636;2023-06-05T14:23:00;33.90;46.40
59651;DHT22;45954;49.768;8.636;2023-06-05T14:25:28;33.40;44.90
59651;DHT22;45954;49.768;8.636;2023-06-05T14:27:56;33.60;46.60
59651;DHT22;45954;49.768;8.636;2023-06-05T14:30:23;34.40;45.80
59651;DHT22;45954;49.768;8.636;2023-06-05T14:32:51;34.80;44.60
59651;DHT22;45954;49.768;8.636;2023-06-05T14:35:17;34.90;45.30
59651;DHT22;45954;49.768;8.636;2023-06-05T14:37:46;34.30;45.30
59651;DHT22;45954;49.768;8.636;2023-06-05T14:40:12;34.50;46.50
59651;DHT22;45954;49.768;8.636;2023-06-05T14:42:38;34.30;46.20
59651;DHT22;45954;49.768;8.636;2023-06-05T14:45:04;33.20;45.30
59651;DHT22;45954;49.768;8.636;2023-06-05T14:47:31;32.60;46.80
59651;DHT22;45954;49.768;8.636;2023-06-05T14:49:57;32.40;46.50
59651;DHT22;45954;49.768;8.636;2023-06-05T14:52:24;32.60;46.60
59651;DHT22;45954;49.768;8.636;2023-06-05T14:54:49;33.50;46.00
59651;DHT22;45954;49.768;8.636;2023-06-05T14:57:15;33.30;46.30
59651;DHT22;45954;49.768;8.636;2023-06-05T14:59:41;33.80;45.60
59651;DHT22;45954;49.768;8.636;2023-06-05T15:02:07;34.20;45.00
59651;DHT22;45954;49.768;8.636;2023-06-05T15:04:33;34.20;45.10
59651;DHT22;45954;49.768;8.636;2023-06-05T15:07:00;35.00;45.90
59651;DHT22;45954;49.768;8.636;2023-06-05T15:09:26;35.10;45.60
59651;DHT22;45954;49.768;8.636;2023-06-05T15:11:52;35.30;46.30
59651;DHT22;45954;49.768;8.636;2023-06-05T15:14:21;35.40;44.40
59651;DHT22;45954;49.768;8.636;2023-06-05T15:16:48;35.00;46.80
59651;DHT22;45954;49.768;8.636;2023-06-05T15:19:13;35.90;45.50
59651;DHT22;45954;49.768;8.636;2023-06-05T15:21:40;34.80;45.90
59651;DHT22;45954;49.768;8.636;2023-06-05T15:24:06;34.20;46.00
59651;DHT22;45954;49.768;8.636;2023-06-05T15:26:33;34.60;46.00
59651;DHT22;45954;49.768;8.636;2023-06-05T15:28:59;35.30;45.90
59651;DHT22;45954;49.768;8.636;2023-06-05T15:31:24;35.70;45.60
59651;DHT22;45954;49.768;8.636;2023-06-05T15:33:50;35.90;44.90
59651;DHT22;45954;49.768;8.636;2023-06-05T15:36:17;35.70;45.70
59651;DHT22;45954;49.768;8.636;2023-06-05T15:38:43;34.80;45.40
59651;DHT22;45954;49.768;8.636;2023-06-05T15:41:10;34.20;45.40
59651;DHT22;45954;49.768;8.636;2023-06-05T15:43:36;34.60;45.50
59651;DHT22;45954;49.768;8.636;2023-06-05T15:46:02;34.70;46.00
59651;DHT22;45954;49.768;8.636;2023-06-05T15:48:28;34.20;45.80
59651;DHT22;45954;49.768;8.636;2023-06-05T15:50:54;33.50;45.80
59651;DHT22;45954;49.768;8.636;2023-06-05T15:53:23;32.70;46.50
59651;DHT22;45954;49.768;8.636;2023-06-05T15:55:48;33.50;46.50
59651;DHT22;45954;49.768;8.636;2023-06-05T15:58:14;33.90;45.90
59651;DHT22;45954;49.768;8.636;2023-06-05T16:00:41;33.80;46.10
59651;DHT22;45954;49.768;8.636;2023-06-05T16:03:06;33.70;46.10
59651;DHT22;45954;49.768;8.636;2023-06-05T16:05:33;33.70;46.50
59651;DHT22;45954;49.768;8.636;2023-06-05T16:07:59;33.80;46.00
59651;DHT22;45954;49.768;8.636;2023-06-05T16:10:24;33.80;45.80
59651;DHT22;45954;49.768;8.636;2023-06-05T16:12:51;33.10;45.70
59651;DHT22;45954;49.768;8.636;2023-06-05T16:15:17;33.60;46.20
59651;DHT22;45954;49.768;8.636;2023-06-05T16:17:43;33.00;45.70
59651;DHT22;45954;49.768;8.636;2023-06-05T16:20:09;32.50;46.50